Time;durP1;ratioP1;P1;durP2;ratioP2;P2;SDS_P1;SDS_P2;PMS_P1;PMS_P2;Temp;Humidity;BMP_temperature;BMP_pressure;BME280_temperature;BME280_humidity;BME280_pressure;Samples;Min_cycle;Max_cycle;Signal;HPM_P1;HPM_P2
2021/04/15 05:30:52;;;;;;;3.35;3.05;;;;;;;2.71;85.10;100387.70;1707704;79;27335;-59
2021/04/15 05:37:26;;;;;;;3.52;3.15;;;;;;;2.77;85.19;100396.02;1632979;86;25528;-60
2021/04/15 05:39:56;;;;;;;6.15;4.22;;;;;;;2.82;85.37;100391.26;1636341;86;25725;-60
2021/04/15 05:42:40;;;;;;;10.05;7.25;;;;;;;2.87;85.38;100394.52;1628985;88;25433;-60
2021/04/15 05:45:18;;;;;;;5.33;4.17;;;;;;;2.91;85.55;100388.41;1658981;85;25854;-60
2021/04/15 05:47:49;;;;;;;4.05;3.62;;;;;;;2.95;85.60;100394.84;1658682;85;25709;-59
2021/04/15 05:50:34;;;;;;;3.98;3.67;;;;;;;2.99;85.65;100392.46;1658863;86;25657;-60
2021/04/15 05:53:18;;;;;;;3.90;3.60;;;;;;;3.04;85.62;100394.38;1658781;86;25601;-60
2021/04/15 05:55:49;;;;;;;3.30;3.00;;;;;;;3.09;85.61;100389.06;1659693;85;25561;-60
2021/04/15 05:58:21;;;;;;;3.60;2.98;;;;;;;3.12;85.61;100388.02;1659925;85;26639;-61
2021/04/15 06:01:11;;;;;;;4.53;3.65;;;;;;;3.16;85.58;100393.11;1659925;85;25557;-60
2021/04/15 06:04:17;;;;;;;4.15;3.70;;;;;;;3.18;85.50;100393.69;1660015;85;34709;-63
2021/04/15 06:06:46;;;;;;;3.30;3.10;;;;;;;3.25;85.61;100393.98;1661591;84;25430;-59
2021/04/15 06:09:13;;;;;;;3.58;3.27;;;;;;;3.30;85.69;100392.67;1677982;84;25545;-61
2021/04/15 06:12:00;;;;;;;4.28;3.87;;;;;;;3.34;85.74;100391.11;1677016;85;25738;-61
2021/04/15 06:14:53;;;;;;;2.95;2.75;;;;;;;3.41;85.84;100392.22;1682916;85;25312;-59
2021/04/15 06:17:52;;;;;;;3.75;3.40;;;;;;;3.44;85.77;100391.17;1683013;84;25511;-60
2021/04/15 06:20:45;;;;;;;2.87;2.67;;;;;;;3.50;85.73;100386.65;1631115;87;25316;-60
2021/04/15 06:23:20;;;;;;;3.70;3.40;;;;;;;3.55;85.67;100386.67;1630970;88;25556;-60
2021/04/15 06:25:49;;;;;;;3.75;3.45;;;;;;;3.56;85.53;100378.94;1661178;84;25834;-60
2021/04/15 06:28:39;;;;;;;3.70;2.87;;;;;;;3.62;85.62;100378.42;1666297;85;25519;-61
2021/04/15 06:31:29;;;;;;;4.03;3.52;;;;;;;3.66;85.61;100375.48;1670453;85;25289;-60
2021/04/15 06:34:01;;;;;;;;;;;;;;;3.73;85.84;100370.72;1599723;89;26139;-60
2021/04/15 06:37:08;;;;;;;3.85;3.50;;;;;;;3.79;85.87;100371.00;1620787;88;25524;-61
2021/04/15 06:39:39;;;;;;;5.08;4.00;;;;;;;3.85;85.94;100368.63;1574438;91;25953;-62
2021/04/15 06:42:29;;;;;;;4.17;3.77;;;;;;;3.90;85.69;100371.32;1596020;89;25680;-61
2021/04/15 06:45:22;;;;;;;4.40;4.00;;;;;;;3.95;85.83;100369.72;1608032;88;25274;-60
2021/04/15 06:48:06;;;;;;;5.62;5.10;;;;;;;4.06;85.81;100368.15;1849630;76;34859;-60
2021/04/15 06:51:19;;;;;;;4.65;4.12;;;;;;;4.05;85.87;100374.59;1819192;78;25244;-60
2021/04/15 06:54:22;;;;;;;5.47;4.40;;;;;;;4.10;85.74;100368.42;1819331;78;25691;-60
2021/04/15 06:57:26;;;;;;;5.28;4.78;;;;;;;4.16;85.99;100371.39;1829513;77;25275;-60
2021/04/15 07:00:32;;;;;;;6.20;4.90;;;;;;;4.22;85.85;100370.86;1853695;77;25406;-61
2021/04/15 07:03:27;;;;;;;5.50;4.97;;;;;;;4.26;85.68;100373.30;1750880;81;25478;-60
2021/04/15 07:06:23;;;;;;;5.22;4.70;;;;;;;4.31;85.79;100370.63;1720772;81;25539;-60
2021/04/15 07:09:30;;;;;;;7.35;5.72;;;;;;;4.37;85.88;100368.76;1724282;81;25934;-61
2021/04/15 07:12:26;;;;;;;7.22;5.87;;;;;;;4.41;85.82;100373.33;1726771;81;25645;-60
2021/04/15 07:15:04;;;;;;;9.55;8.40;;;;;;;4.47;85.93;100368.77;1720900;81;25634;-60
2021/04/15 07:18:12;;;;;;;30.15;18.80;;;;;;;4.55;86.08;100373.61;1721414;81;25573;-60
2021/04/15 07:21:15;;;;;;;16.02;10.60;;;;;;;4.71;86.14;100374.41;1887847;76;34867;-61
2021/04/15 07:24:13;;;;;;;15.03;10.00;;;;;;;4.67;85.96;100375.48;1860000;77;25259;-60
2021/04/15 07:27:01;;;;;;;7.78;6.97;;;;;;;4.74;85.93;100373.09;1859984;77;25689;-60
2021/04/15 07:29:59;;;;;;;8.63;7.10;;;;;;;4.77;85.62;100379.26;1859929;77;25392;-60
2021/04/15 07:32:54;;;;;;;9.45;7.75;;;;;;;4.80;85.71;100379.52;1859983;77;25246;-61
2021/04/15 07:35:38;;;;;;;7.80;7.00;;;;;;;4.82;85.57;100378.72;1859926;77;25448;-61
2021/04/15 07:38:57;;;;;;;8.53;7.17;;;;;;;4.85;85.47;100381.38;1853458;75;26417;-60
2021/04/15 07:42:17;;;;;;;9.70;7.85;;;;;;;4.89;85.49;100389.17;1852794;77;25702;-60
2021/04/15 07:44:59;;;;;;;9.03;8.05;;;;;;;4.95;85.72;100384.60;1859862;77;25781;-60
2021/04/15 07:47:55;;;;;;;16.80;12.35;;;;;;;4.99;85.63;100385.14;1859352;77;25474;-61
2021/04/15 07:50:39;;;;;;;11.25;8.95;;;;;;;5.03;85.55;100389.42;1859898;77;25282;-61
2021/04/15 07:53:16;;;;;;;10.08;8.60;;;;;;;5.07;85.67;100387.80;1858468;76;25310;-60
2021/04/15 07:56:11;;;;;;;11.57;8.68;;;;;;;5.12;85.56;100384.33;1844463;77;25710;-61
2021/04/15 07:59:21;;;;;;;9.03;6.90;;;;;;;5.14;85.53;100380.31;1845173;75;25295;-60
2021/04/15 08:02:23;;;;;;;9.85;8.33;;;;;;;5.19;85.33;100392.89;1845529;77;25423;-61
2021/04/15 08:05:25;;;;;;;11.22;8.30;;;;;;;5.20;85.17;100392.63;1826231;78;25782;-61
2021/04/15 08:08:20;;;;;;;8.48;7.47;;;;;;;5.20;85.09;100392.63;1853540;75;25120;-60
2021/04/15 08:11:19;;;;;;;9.53;7.15;;;;;;;5.23;85.17;100389.41;1858449;77;27952;-62
2021/04/15 08:14:19;;;;;;;8.80;7.92;;;;;;;5.28;85.21;100395.82;1851318;76;25615;-60
2021/04/15 08:17:26;;;;;;;8.33;7.40;;;;;;;5.32;85.25;100395.02;1786791;79;25813;-62
2021/04/15 08:20:11;;;;;;;9.40;8.13;;;;;;;5.37;85.39;100398.23;1776396;78;25268;-62
2021/04/15 08:23:16;;;;;;;9.30;8.28;;;;;;;5.42;85.37;100390.97;1771773;80;25491;-59
2021/04/15 08:26:23;;;;;;;10.23;8.18;;;;;;;5.47;85.26;100395.53;1760047;81;27172;-60
2021/04/15 08:29:27;;;;;;;8.00;7.12;;;;;;;5.50;85.21;100397.67;1774995;80;25344;-59
2021/04/15 08:32:14;;;;;;;27.93;16.77;;;;;;;5.53;85.03;100397.66;1777667;80;25597;-60
2021/04/15 08:35:03;;;;;;;29.72;19.57;;;;;;;5.55;84.87;100403.03;1776516;78;25264;-61
2021/04/15 08:38:15;;;;;;;10.80;7.93;;;;;;;5.57;84.76;100401.42;1790910;80;25249;-60
2021/04/15 08:41:12;;;;;;;7.37;6.67;;;;;;;5.62;85.02;100398.72;1789977;80;25698;-61
2021/04/15 08:44:35;;;;;;;9.28;7.72;;;;;;;5.69;85.17;100399.77;1782698;80;25566;-60
2021/04/15 08:51:14;;;;;;;9.05;7.87;;;;;;;5.79;84.99;100399.19;1773430;78;25552;-59
2021/04/15 08:54:11;;;;;;;11.80;8.70;;;;;;;5.86;84.96;100402.13;1779075;78;25284;-59
2021/04/15 08:56:54;;;;;;;8.73;7.80;;;;;;;5.89;84.88;100398.88;1753705;81;25781;-60
2021/04/15 09:00:04;;;;;;;9.08;8.10;;;;;;;5.93;84.90;100403.43;1747185;81;25609;-60
2021/04/15 09:02:36;;;;;;;11.40;8.73;;;;;;;5.95;84.95;100401.27;1761396;81;25529;-59
2021/04/15 09:05:09;;;;;;;10.23;8.55;;;;;;;5.97;84.76;100412.56;1757213;81;25321;-59
2021/04/15 09:07:47;;;;;;;11.08;8.83;;;;;;;6.00;84.81;100401.03;1761702;81;25318;-59
2021/04/15 09:10:31;;;;;;;10.93;7.92;;;;;;;6.02;84.67;100398.31;1758106;81;25968;-59
2021/04/15 09:13:26;;;;;;;10.53;8.60;;;;;;;6.03;84.53;100397.25;1761737;81;25272;-59
2021/04/15 09:16:37;;;;;;;9.80;8.10;;;;;;;6.07;84.54;100392.92;1758229;81;25452;-59
2021/04/15 09:19:36;;;;;;;9.35;7.90;;;;;;;6.12;84.60;100393.45;1761774;78;25395;-57
2021/04/15 09:22:40;;;;;;;9.33;7.55;;;;;;;6.15;84.60;100395.58;1783828;80;25460;-58
2021/04/15 09:25:39;;;;;;;9.45;8.43;;;;;;;6.20;84.55;100394.22;1804946;79;25821;-59
2021/04/15 09:28:29;;;;;;;9.73;8.63;;;;;;;6.23;84.40;100396.87;1804940;79;25296;-60
2021/04/15 09:31:16;;;;;;;9.03;7.67;;;;;;;6.30;84.78;100393.33;1804831;79;25492;-58
2021/04/15 09:34:20;;;;;;;10.68;8.63;;;;;;;6.34;84.40;100394.41;1783616;80;25122;-58
2021/04/15 09:37:27;;;;;;;9.13;8.23;;;;;;;6.36;84.27;100394.37;1801655;79;25474;-58
2021/04/15 09:40:19;;;;;;;11.28;8.78;;;;;;;6.36;84.07;100393.58;1791856;79;25778;-59
2021/04/15 09:43:12;;;;;;;9.28;8.33;;;;;;;6.36;83.83;100394.92;1791268;80;25410;-57
2021/04/15 09:45:47;;;;;;;10.03;8.85;;;;;;;6.36;83.75;100391.69;1785835;79;25358;-57
2021/04/15 09:48:25;;;;;;;10.65;8.65;;;;;;;6.38;83.95;100392.75;1783280;80;25272;-59
2021/04/15 09:51:17;;;;;;;10.50;8.23;;;;;;;6.41;84.05;100390.06;1783473;80;25385;-59
2021/04/15 09:54:18;;;;;;;11.28;8.35;;;;;;;6.45;84.17;100392.45;1783508;80;26834;-59
2021/04/15 09:57:11;;;;;;;10.18;8.25;;;;;;;6.49;84.12;100395.65;1783617;80;25458;-58
2021/04/15 10:00:17;;;;;;;9.68;8.53;;;;;;;6.53;84.22;100398.03;1784385;79;25314;-58
2021/04/15 10:03:09;;;;;;;10.38;8.53;;;;;;;6.65;84.21;100400.37;1848026;76;34521;-58
2021/04/15 10:06:02;;;;;;;9.40;7.97;;;;;;;6.61;84.05;100392.61;1806604;79;25316;-59
2021/04/15 10:08:40;;;;;;;10.28;7.90;;;;;;;6.61;83.94;100391.82;1807671;77;26374;-58
2021/04/15 10:11:35;;;;;;;9.53;7.75;;;;;;;6.62;83.77;100394.75;1848700;77;25331;-59
2021/04/15 10:14:24;;;;;;;9.95;7.72;;;;;;;6.60;83.60;100396.92;1786835;80;25334;-59
2021/04/15 10:17:13;;;;;;;;;;;;;;;6.59;83.57;100400.68;1820922;78;25488;-59
2021/04/15 10:19:57;;;;;;;9.18;7.75;;;;;;;6.58;83.41;100394.52;1792186;80;25492;-59
2021/04/15 10:23:08;;;;;;;10.53;7.65;;;;;;;6.56;83.39;100403.40;1789182;80;26993;-59
2021/04/15 10:25:46;;;;;;;9.60;8.10;;;;;;;6.59;83.62;100396.13;1786729;80;25289;-59
2021/04/15 10:28:21;;;;;;;9.58;7.78;;;;;;;6.61;83.60;100397.98;1796801;79;25518;-59
2021/04/15 10:31:09;;;;;;;8.48;7.50;;;;;;;6.62;83.70;100398.23;1796863;79;25570;-58
2021/04/15 10:33:53;;;;;;;9.08;7.72;;;;;;;6.65;83.66;100400.92;1796833;79;25542;-59
2021/04/15 10:36:48;;;;;;;7.92;7.12;;;;;;;6.63;83.52;100399.06;1762401;79;25715;-60
2021/04/15 10:40:09;;;;;;;9.35;7.30;;;;;;;6.62;83.49;100406.30;1777272;79;25504;-59
2021/04/15 10:43:35;;;;;;;11.57;7.97;;;;;;;6.61;83.37;100404.71;1753441;81;25279;-58
2021/04/15 10:46:30;;;;;;;10.67;7.90;;;;;;;6.57;83.36;100406.33;1762427;81;25461;-60
2021/04/15 10:49:31;;;;;;;10.20;6.95;;;;;;;6.57;83.53;100410.36;1762109;81;25311;-60
2021/04/15 10:52:35;;;;;;;10.60;7.78;;;;;;;6.55;83.38;100405.81;1760574;81;25882;-60
2021/04/15 10:55:35;;;;;;;8.63;7.35;;;;;;;6.55;83.50;100404.47;1753159;81;25743;-59
2021/04/15 10:58:34;;;;;;;9.78;8.30;;;;;;;6.57;83.69;100406.33;1762261;81;25255;-59
2021/04/15 11:01:35;;;;;;;8.90;8.00;;;;;;;6.58;83.77;100404.47;1756238;79;25589;-58
2021/04/15 11:04:14;;;;;;;9.93;8.18;;;;;;;6.58;83.59;100407.95;1752601;79;25452;-57
2021/04/15 11:06:57;;;;;;;10.40;8.40;;;;;;;6.56;83.39;100412.80;1738841;81;28168;-58
2021/04/15 11:09:37;;;;;;;8.60;7.62;;;;;;;6.55;83.37;100417.91;1755464;81;25438;-58
2021/04/15 11:12:22;;;;;;;14.95;10.18;;;;;;;6.53;83.35;100415.50;1747099;81;26165;-58
2021/04/15 11:15:01;;;;;;;10.28;9.05;;;;;;;6.48;83.11;100418.77;1744219;81;25688;-58
2021/04/15 11:17:42;;;;;;;9.28;8.15;;;;;;;6.44;82.89;100415.04;1750777;81;25451;-61
2021/04/15 11:20:16;;;;;;;10.78;9.18;;;;;;;6.40;82.96;100412.08;1734324;81;25895;-59
2021/04/15 11:23:01;;;;;;;9.68;8.68;;;;;;;6.36;83.00;100418.55;1739106;81;25625;-59
2021/04/15 11:25:36;;;;;;;10.18;8.33;;;;;;;6.35;83.25;100416.14;1705315;83;25647;-59
2021/04/15 11:28:20;;;;;;;10.03;8.90;;;;;;;6.33;83.19;100416.44;1785893;79;25807;-59
2021/04/15 11:31:01;;;;;;;10.70;8.85;;;;;;;6.33;83.12;100419.65;1703158;83;25457;-58
2021/04/15 11:33:44;;;;;;;11.63;9.23;;;;;;;6.35;83.23;100420.99;1866757;75;34537;-60
2021/04/15 11:36:25;;;;;;;10.82;8.60;;;;;;;6.30;83.38;100416.17;1834457;77;25596;-59
2021/04/15 11:39:19;;;;;;;11.95;9.73;;;;;;;6.29;83.52;100416.72;1835250;77;28002;-60
2021/04/15 11:41:56;;;;;;;11.53;9.80;;;;;;;6.29;83.40;100411.89;1834976;77;25593;-60
2021/04/15 11:44:47;;;;;;;10.95;9.75;;;;;;;6.30;83.46;100417.52;1835142;77;25476;-61
2021/04/15 11:47:30;;;;;;;12.00;9.93;;;;;;;6.31;83.74;100417.23;1783426;80;34596;-59
2021/04/15 11:50:22;;;;;;;13.05;10.15;;;;;;;6.34;83.72;100425.30;1783501;80;25561;-58
2021/04/15 11:52:53;;;;;;;12.50;9.95;;;;;;;6.34;83.69;100420.72;1766515;79;25949;-60
2021/04/15 11:55:32;;;;;;;11.48;10.25;;;;;;;6.36;83.69;100415.07;1775494;80;25550;-59
2021/04/15 11:58:11;;;;;;;13.10;10.75;;;;;;;6.33;83.54;100415.09;1778202;80;25563;-60
2021/04/15 12:00:43;;;;;;;13.62;10.93;;;;;;;6.35;83.58;100420.17;1772434;80;25602;-59
2021/04/15 12:03:21;;;;;;;12.63;10.30;;;;;;;6.31;83.38;100413.20;1766398;80;26243;-60
2021/04/15 12:05:50;;;;;;;12.15;10.90;;;;;;;6.28;83.35;100421.84;1766755;80;25718;-58
2021/04/15 12:08:24;;;;;;;15.53;10.85;;;;;;;6.27;83.46;100417.54;1758559;81;25427;-60
2021/04/15 12:11:08;;;;;;;17.73;11.70;;;;;;;6.26;83.48;100426.66;1758686;81;25491;-60
2021/04/15 12:13:43;;;;;;;15.63;11.20;;;;;;;6.26;83.61;100421.30;1758660;81;25435;-58
2021/04/15 12:16:47;;;;;;;18.30;13.72;;;;;;;6.25;83.59;100421.05;1758812;81;25300;-58
2021/04/15 12:19:42;;;;;;;16.30;12.25;;;;;;;6.25;83.61;100420.22;1758652;81;25775;-60
2021/04/15 12:22:49;;;;;;;17.48;13.00;;;;;;;6.23;83.61;100419.19;1758598;81;25483;-59
2021/04/15 12:25:33;;;;;;;18.62;14.03;;;;;;;6.20;83.58;100428.30;1765438;81;25279;-61
2021/04/15 12:28:24;;;;;;;14.60;12.03;;;;;;;6.20;83.95;100430.48;1765298;81;25316;-58
2021/04/15 12:31:00;;;;;;;16.85;13.28;;;;;;;6.17;83.80;100426.45;1765378;81;25525;-59
2021/04/15 12:33:42;;;;;;;15.08;13.00;;;;;;;6.16;83.83;100431.56;1777126;79;25779;-59
2021/04/15 12:36:21;;;;;;;18.42;13.38;;;;;;;6.16;83.91;100430.75;1787263;80;25345;-58
2021/04/15 12:38:56;;;;;;;15.05;12.20;;;;;;;6.15;83.92;100429.16;1796744;79;25523;-59
2021/04/15 12:41:24;;;;;;;19.73;13.68;;;;;;;6.12;83.89;100429.70;1816954;79;25427;-59
2021/04/15 12:43:57;;;;;;;16.48;12.98;;;;;;;6.13;84.15;100427.27;1816788;79;25331;-60
2021/04/15 12:46:28;;;;;;;14.78;12.53;;;;;;;6.14;84.14;100431.02;1780431;79;25728;-60
2021/04/15 12:49:12;;;;;;;15.48;12.60;;;;;;;6.15;84.20;100427.27;1784203;80;25524;-60
2021/04/15 12:51:46;;;;;;;14.70;12.37;;;;;;;6.17;84.24;100433.16;1784196;80;25294;-59
2021/04/15 12:54:24;;;;;;;14.00;11.85;;;;;;;6.17;84.32;100438.53;1784193;80;25466;-58
2021/04/15 12:56:58;;;;;;;15.45;12.55;;;;;;;6.19;84.26;100433.44;1773939;79;25323;-60
2021/04/15 12:59:33;;;;;;;12.90;11.00;;;;;;;6.22;84.45;100435.58;1790702;79;25698;-59
2021/04/15 13:02:01;;;;;;;16.75;12.07;;;;;;;6.22;84.33;100435.58;1755906;80;25435;-60
2021/04/15 13:04:40;;;;;;;15.32;12.25;;;;;;;6.22;84.25;100432.89;1783037;79;25622;-59
2021/04/15 13:07:28;;;;;;;14.65;12.25;;;;;;;6.22;84.27;100426.17;1783483;79;25599;-59
2021/04/15 13:10:18;;;;;;;14.58;11.85;;;;;;;6.24;84.43;100428.03;1792290;79;25331;-60
2021/04/15 13:12:52;;;;;;;14.40;11.30;;;;;;;6.25;84.43;100425.08;1770874;80;26238;-59
2021/04/15 13:15:30;;;;;;;15.53;12.30;;;;;;;6.27;84.37;100432.86;1788561;80;25592;-60
2021/04/15 13:18:06;;;;;;;16.32;12.98;;;;;;;6.27;84.55;100429.63;1788881;80;25570;-60
2021/04/15 13:20:38;;;;;;;14.00;11.63;;;;;;;6.29;84.52;100432.04;1799379;79;25700;-59
2021/04/15 13:23:13;;;;;;;18.98;14.33;;;;;;;6.30;84.62;100426.91;1797874;79;25473;-59
2021/04/15 13:25:57;;;;;;;21.62;14.55;;;;;;;6.30;84.43;100430.42;1790708;79;25771;-59
2021/04/15 13:28:48;;;;;;;21.65;14.65;;;;;;;6.30;84.40;100422.36;1784123;80;25604;-59
2021/04/15 13:31:43;;;;;;;14.43;12.23;;;;;;;6.32;84.57;100423.44;1784284;80;25523;-58
2021/04/15 13:34:20;;;;;;;14.50;12.18;;;;;;;6.31;84.35;100421.81;1759278;80;25321;-60
2021/04/15 13:36:49;;;;;;;14.20;11.75;;;;;;;6.31;84.45;100424.50;1758868;81;25318;-60
2021/04/15 13:39:36;;;;;;;17.43;13.37;;;;;;;6.31;84.48;100415.89;1759031;81;25772;-60
2021/04/15 13:42:10;;;;;;;17.50;13.35;;;;;;;6.33;84.68;100425.84;1758585;81;25457;-59
2021/04/15 13:44:51;;;;;;;14.30;11.97;;;;;;;6.32;84.49;100422.88;1755053;81;25179;-59
2021/04/15 13:47:48;;;;;;;14.30;11.20;;;;;;;6.33;84.54;100430.39;1759489;81;25403;-58
2021/04/15 13:50:19;;;;;;;15.95;12.47;;;;;;;6.35;84.59;100432.26;1757473;81;25585;-57
2021/04/15 13:52:46;;;;;;;17.60;12.63;;;;;;;6.36;84.68;100433.33;1757242;81;28095;-59
2021/04/15 13:55:44;;;;;;;15.72;13.25;;;;;;;6.38;84.72;100438.42;1757678;81;25719;-59
2021/04/15 13:58:11;;;;;;;14.30;12.33;;;;;;;6.41;84.67;100439.77;1757712;81;25550;-60
2021/04/15 14:00:45;;;;;;;14.85;12.18;;;;;;;6.39;84.64;100433.87;1757697;81;25603;-58
2021/04/15 14:03:43;;;;;;;18.73;11.83;;;;;;;6.38;84.59;100433.61;1766877;80;26161;-60
2021/04/15 14:06:17;;;;;;;15.67;12.93;;;;;;;6.37;84.57;100435.50;1788037;80;25923;-59
2021/04/15 14:08:52;;;;;;;16.95;11.65;;;;;;;6.36;84.50;100437.91;1789022;80;25460;-59
2021/04/15 14:11:32;;;;;;;14.80;11.55;;;;;;;6.34;84.55;100442.76;1769430;80;25444;-65
2021/04/15 14:14:04;;;;;;;16.95;11.95;;;;;;;6.32;84.58;100437.66;1758673;81;25765;-59
2021/04/15 14:16:32;;;;;;;17.75;13.00;;;;;;;6.31;84.43;100441.41;1758762;81;25525;-60
2021/04/15 14:19:11;;;;;;;16.93;12.73;;;;;;;6.31;84.38;100437.94;1771471;80;25742;-59
2021/04/15 14:21:42;;;;;;;17.87;14.03;;;;;;;6.30;84.57;100437.14;1762967;80;25533;-59
2021/04/15 14:24:18;;;;;;;20.55;14.55;;;;;;;6.31;84.65;100438.73;1767304;80;25552;-59
2021/04/15 14:26:51;;;;;;;20.90;14.95;;;;;;;6.31;84.60;100442.76;1758611;80;25616;-59
2021/04/15 14:29:24;;;;;;;21.02;15.25;;;;;;;6.30;84.62;100435.80;1758828;81;25472;-60
2021/04/15 14:32:03;;;;;;;22.73;15.78;;;;;;;6.29;84.52;100435.52;1762616;80;26690;-59
2021/04/15 14:34:44;;;;;;;22.77;15.57;;;;;;;6.28;84.59;100431.25;1794901;79;25584;-59
2021/04/15 14:37:17;;;;;;;21.35;15.85;;;;;;;6.29;84.71;100417.27;1789929;79;25607;-59
2021/04/15 14:39:48;;;;;;;22.55;16.12;;;;;;;6.29;84.71;100420.75;1788954;79;25263;-59
2021/04/15 14:42:29;;;;;;;21.05;15.28;;;;;;;6.28;84.77;100424.53;1789591;80;25437;-60
2021/04/15 14:45:21;;;;;;;19.73;15.08;;;;;;;6.29;84.88;100421.30;1789056;79;26603;-60
2021/04/15 14:47:58;;;;;;;25.27;17.42;;;;;;;6.30;84.95;100417.52;1783091;79;25687;-60
2021/04/15 14:50:32;;;;;;;19.50;15.63;;;;;;;6.31;84.92;100419.92;1784188;80;25329;-59
2021/04/15 14:53:18;;;;;;;22.05;16.65;;;;;;;6.29;84.83;100424.77;1784114;80;25284;-60
2021/04/15 14:55:50;;;;;;;19.32;15.03;;;;;;;6.28;84.85;100426.39;1784257;80;25258;-60
2021/04/15 14:58:27;;;;;;;21.17;14.68;;;;;;;6.30;85.03;100425.57;1755882;80;25945;-60
2021/04/15 15:01:02;;;;;;;19.05;13.83;;;;;;;6.30;85.07;100427.73;1784116;80;25318;-61
2021/04/15 15:03:33;;;;;;;18.95;15.55;;;;;;;6.29;85.04;100422.09;1784194;80;25462;-61
2021/04/15 15:06:02;;;;;;;20.30;15.05;;;;;;;6.28;84.97;100428.56;1784126;80;25329;-60
2021/04/15 15:08:33;;;;;;;20.00;15.15;;;;;;;6.27;85.00;100425.59;1784210;80;25278;-66
2021/04/15 15:11:01;;;;;;;24.90;17.40;;;;;;;6.28;85.04;100427.22;1784172;80;25715;-60
2021/04/15 15:13:33;;;;;;;20.60;16.27;;;;;;;6.26;84.99;100428.01;1788242;79;25660;-60
2021/04/15 15:16:04;;;;;;;23.22;17.27;;;;;;;6.27;84.99;100428.28;1789491;79;25544;-60
2021/04/15 15:18:32;;;;;;;22.93;16.97;;;;;;;6.26;85.04;100421.84;1792788;79;25746;-61
2021/04/15 15:21:00;;;;;;;25.40;18.07;;;;;;;6.27;85.13;100422.12;1777863;79;25681;-61
2021/04/15 15:23:35;;;;;;;19.93;15.70;;;;;;;6.27;85.08;100421.57;1787093;79;25716;-59
2021/04/15 15:26:29;;;;;;;22.95;17.52;;;;;;;6.27;85.16;100420.78;1809056;79;25638;-60
2021/04/15 15:28:59;;;;;;;22.90;17.30;;;;;;;6.28;85.22;100425.05;1766619;79;25609;-59
2021/04/15 15:31:42;;;;;;;21.07;16.70;;;;;;;6.25;85.17;100419.70;1785469;79;25442;-61
2021/04/15 15:34:33;;;;;;;25.32;17.80;;;;;;;6.25;85.19;100421.05;1821406;78;25481;-60
2021/04/15 15:37:20;;;;;;;23.92;17.82;;;;;;;6.26;85.23;100421.84;1810409;78;26155;-60
2021/04/15 15:39:48;;;;;;;25.77;19.40;;;;;;;6.24;85.22;100419.43;1789025;80;25537;-60
2021/04/15 15:42:35;;;;;;;26.68;20.30;;;;;;;6.23;85.30;100417.02;1793499;78;25596;-60
2021/04/15 15:45:07;;;;;;;28.05;20.55;;;;;;;6.23;85.39;100418.36;1766997;80;25309;-60
2021/04/15 15:47:44;;;;;;;51.58;32.90;;;;;;;6.24;85.37;100414.61;1804885;78;25105;-59
2021/04/15 15:50:18;;;;;;;39.98;26.48;;;;;;;6.22;85.40;100414.88;1798253;78;25858;-59
2021/04/15 15:53:19;;;;;;;27.27;20.00;;;;;;;6.23;85.50;100416.50;1799670;78;25622;-57
2021/04/15 15:55:48;;;;;;;24.90;17.85;;;;;;;6.23;85.45;100416.50;1790759;78;25329;-60
2021/04/15 15:58:24;;;;;;;26.90;19.50;;;;;;;6.21;85.30;100417.29;1787253;79;25498;-60
2021/04/15 16:01:12;;;;;;;25.88;18.12;;;;;;;6.26;85.35;100412.44;1870622;74;34993;-61
2021/04/15 16:03:41;;;;;;;20.85;16.82;;;;;;;6.18;85.37;100413.84;1869786;76;25284;-59
2021/04/15 16:06:18;;;;;;;21.77;16.62;;;;;;;6.17;85.39;100415.70;1799935;79;25760;-59
2021/04/15 16:08:49;;;;;;;20.75;16.25;;;;;;;6.15;85.36;100407.13;1813941;78;25543;-59
2021/04/15 16:11:39;;;;;;;21.17;16.12;;;;;;;6.12;85.33;100406.87;1822290;78;25258;-59
2021/04/15 16:14:08;;;;;;;20.62;15.55;;;;;;;6.09;85.42;100413.58;1790533;78;25503;-59
2021/04/15 16:16:36;;;;;;;22.13;16.90;;;;;;;6.11;85.60;100416.00;1802032;78;25231;-59
2021/04/15 16:19:05;;;;;;;24.40;17.40;;;;;;;6.11;85.70;100416.82;1792543;80;26676;-59
2021/04/15 16:24:34;;;;;;;23.30;17.02;;;;;;;6.20;85.84;100413.53;1844798;76;34846;-61
2021/04/15 16:27:07;;;;;;;21.77;17.60;;;;;;;6.13;85.69;100412.49;1803173;77;25615;-60
2021/04/15 16:29:36;;;;;;;21.77;16.93;;;;;;;6.13;85.77;100416.00;1786910;80;25882;-59
2021/04/15 16:32:04;;;;;;;20.03;16.43;;;;;;;6.14;85.80;100410.08;1769174;78;25714;-60
2021/04/15 16:34:39;;;;;;;20.15;16.73;;;;;;;6.13;85.78;100409.80;1807144;77;25638;-60
2021/04/15 16:37:17;;;;;;;23.85;17.67;;;;;;;6.13;85.78;100416.52;1799888;78;25268;-60
2021/04/15 16:39:45;;;;;;;31.77;21.87;;;;;;;6.12;85.77;100407.67;1817583;78;25269;-59
2021/04/15 16:42:17;;;;;;;58.98;36.00;;;;;;;6.12;85.84;100412.25;1817809;79;25835;-60
2021/04/15 16:44:44;;;;;;;36.03;21.62;;;;;;;6.11;85.90;100404.73;1817803;79;25409;-60
2021/04/15 16:47:11;;;;;;;24.98;18.35;;;;;;;6.13;86.04;100409.28;1817841;78;25532;-61
2021/04/15 16:49:38;;;;;;;33.55;21.68;;;;;;;6.14;86.01;100406.05;1817828;78;25457;-59
2021/04/15 16:52:07;;;;;;;38.48;24.32;;;;;;;6.15;86.04;100411.70;1818001;79;25265;-62
2021/04/15 16:54:35;;;;;;;26.33;19.32;;;;;;;6.15;86.01;100411.70;1806867;77;25862;-60
2021/04/15 16:57:03;;;;;;;31.97;21.33;;;;;;;6.14;86.02;100409.53;1806059;78;25498;-61
2021/04/15 16:59:30;;;;;;;28.67;21.45;;;;;;;6.14;85.98;100413.56;1777690;78;25608;-60
2021/04/15 17:01:57;;;;;;;30.43;21.82;;;;;;;6.15;86.02;100415.73;1806646;77;25640;-60
2021/04/15 17:04:25;;;;;;;28.90;21.25;;;;;;;6.14;86.02;100413.56;1817842;79;25323;-61
2021/04/15 17:06:54;;;;;;;32.53;21.82;;;;;;;6.14;86.02;100417.59;1817926;79;25861;-61
2021/04/15 17:09:23;;;;;;;31.05;22.48;;;;;;;6.14;86.03;100412.77;1817776;79;25520;-62
2021/04/15 17:11:51;;;;;;;33.73;24.15;;;;;;;6.14;86.08;100408.73;1817845;78;25352;-62
2021/04/15 17:14:17;;;;;;;37.33;25.23;;;;;;;6.15;86.10;100411.15;1817922;78;25323;-60
2021/04/15 17:16:44;;;;;;;41.20;28.07;;;;;;;6.15;86.14;100414.39;1817875;79;25506;-61
2021/04/15 17:19:12;;;;;;;37.50;27.50;;;;;;;6.16;86.21;100415.97;1807425;78;25767;-60
2021/04/15 17:21:39;;;;;;;35.25;25.35;;;;;;;6.15;86.15;100413.05;1801501;78;25439;-60
2021/04/15 17:24:08;;;;;;;30.15;22.95;;;;;;;6.14;86.14;100420.83;1794174;79;25398;-60
2021/04/15 17:26:37;;;;;;;40.13;26.13;;;;;;;6.13;86.13;100417.34;1796556;79;25400;-59
2021/04/15 17:29:08;;;;;;;38.92;26.23;;;;;;;6.11;86.22;100415.48;1815488;77;25560;-61
2021/04/15 17:31:37;;;;;;;32.78;23.22;;;;;;;6.12;86.24;100420.30;1771882;81;25958;-63
2021/04/15 17:34:08;;;;;;;33.67;23.18;;;;;;;6.11;86.32;100417.34;1771663;81;25686;-61
2021/04/15 17:36:38;;;;;;;29.70;22.20;;;;;;;6.11;86.33;100416.00;1771459;81;25511;-63
2021/04/15 17:39:12;;;;;;;38.98;26.33;;;;;;;6.11;86.39;100422.20;1771437;81;25557;-60
2021/04/15 17:41:40;;;;;;;39.95;25.62;;;;;;;6.07;86.36;100415.75;1771352;81;25299;-59
2021/04/15 17:44:07;;;;;;;35.80;24.00;;;;;;;6.07;86.39;100427.04;1771169;81;25919;-61
2021/04/15 17:46:35;;;;;;;32.90;23.98;;;;;;;6.06;86.46;100428.93;1771255;81;25639;-61
2021/04/15 17:49:08;;;;;;;34.50;23.18;;;;;;;6.06;86.50;100428.93;1771327;81;25399;-60
2021/04/15 17:51:36;;;;;;;33.02;23.42;;;;;;;6.07;86.54;100436.44;1771348;81;25306;-61
2021/04/15 17:54:04;;;;;;;30.37;21.45;;;;;;;6.06;86.59;100433.48;1771427;81;25518;-60
2021/04/15 17:56:32;;;;;;;29.98;21.10;;;;;;;6.07;86.67;100436.44;1787542;79;25870;-61
2021/04/15 17:59:00;;;;;;;35.73;21.65;;;;;;;6.06;86.68;100435.64;1795455;79;25295;-61
2021/04/15 18:01:29;;;;;;;32.35;22.87;;;;;;;6.06;86.73;100431.62;1795696;79;25440;-61
2021/04/15 18:03:57;;;;;;;34.48;24.55;;;;;;;6.07;86.73;100431.86;1795870;79;25420;-61
2021/04/15 18:06:26;;;;;;;33.83;23.60;;;;;;;6.07;86.72;100429.17;1795947;79;25509;-62
2021/04/15 18:08:54;;;;;;;40.63;25.23;;;;;;;6.07;86.75;100427.83;1795671;79;26648;-61
2021/04/15 18:11:23;;;;;;;47.58;30.30;;;;;;;6.07;86.74;100437.78;1795526;79;25247;-61
2021/04/15 18:13:51;;;;;;;43.02;26.48;;;;;;;6.07;86.78;100437.78;1795736;79;25564;-62
2021/04/15 18:16:21;;;;;;;42.33;26.93;;;;;;;6.05;86.75;100440.73;1795803;79;25309;-62